Aviation Digital Data Service (ADDS)

Output produced by METARs form (0911 UTC 19 November 2018)
found at http://www.aviationweather.gov/metar/data/
 
RJOO 190900Z 35010KT 9999 FEW025 BKN070 14/04 Q1017 RMK 1CU025 5AC070 A3004
TAF RJOO 190506Z 1906/2012 35007KT 9999 FEW025 SCT045